Time;durP1;ratioP1;P1;durP2;ratioP2;P2;SDS_P1;SDS_P2;PMS_P1;PMS_P2;Temp;Humidity;BMP_temperature;BMP_pressure;BME280_temperature;BME280_humidity;BME280_pressure;Samples;Min_cycle;Max_cycle;Signal;HPM_P1;HPM_P2
2021/07/30 00:02:13;;;;;;;7.55;3.17;;;;;;;16.28;67.46;100874.25;4993938;28;20038;-70
2021/07/30 00:04:38;;;;;;;8.30;3.40;;;;;;;16.28;67.57;100871.63;4996962;28;20293;-70
2021/07/30 00:07:04;;;;;;;9.50;4.57;;;;;;;16.30;67.85;100867.81;4990625;28;20019;-70
2021/07/30 00:09:30;;;;;;;11.00;3.90;;;;;;;16.33;68.03;100870.03;4991640;28;20061;-70
2021/07/30 00:11:55;;;;;;;7.28;3.58;;;;;;;16.34;68.13;100869.03;4999153;28;20022;-70
2021/07/30 00:14:22;;;;;;;8.52;3.60;;;;;;;16.36;68.48;100866.22;4970027;28;20038;-70
2021/07/30 00:16:47;;;;;;;7.72;3.58;;;;;;;16.37;68.76;100865.25;4984925;28;20034;-69
2021/07/30 00:19:12;;;;;;;7.60;3.28;;;;;;;16.37;68.52;100870.47;4993269;28;20235;-70
2021/07/30 00:21:38;;;;;;;9.23;3.40;;;;;;;16.38;68.63;100866.03;4990288;28;20034;-70
2021/07/30 00:24:04;;;;;;;8.65;3.35;;;;;;;16.38;68.54;100861.59;4990389;28;20031;-70
2021/07/30 00:26:29;;;;;;;7.95;3.95;;;;;;;16.38;68.58;100868.66;4993347;28;20736;-70
2021/07/30 00:28:55;;;;;;;7.10;3.35;;;;;;;16.35;68.80;100870.66;4995816;28;20034;-70
2021/07/30 00:31:21;;;;;;;8.27;3.33;;;;;;;16.34;67.85;100868.22;4995542;28;20382;-72
2021/07/30 00:33:46;;;;;;;8.02;3.08;;;;;;;16.33;66.82;100871.84;4989708;28;20026;-70
2021/07/30 00:36:12;;;;;;;7.78;3.95;;;;;;;16.33;66.74;100869.22;4991397;28;20081;-70
2021/07/30 00:38:38;;;;;;;8.13;2.97;;;;;;;16.35;66.47;100872.47;4992261;28;20038;-70
2021/07/30 00:41:03;;;;;;;8.23;3.17;;;;;;;16.36;66.62;100871.47;4989761;28;20026;-69
2021/07/30 00:43:29;;;;;;;6.47;3.20;;;;;;;16.38;66.83;100869.47;4991858;28;20037;-70
2021/07/30 00:45:57;;;;;;;9.07;4.00;;;;;;;16.39;66.78;100871.09;4993552;28;20034;-70
2021/07/30 00:48:23;;;;;;;6.93;3.70;;;;;;;16.41;66.60;100868.28;4988124;28;20026;-69
2021/07/30 00:50:49;;;;;;;9.70;3.70;;;;;;;16.42;66.39;100868.06;4970010;28;20553;-70
2021/07/30 00:53:16;;;;;;;7.43;3.17;;;;;;;16.43;66.08;100869.69;4987551;28;20069;-70
2021/07/30 00:55:43;;;;;;;11.70;3.80;;;;;;;16.42;65.78;100862.84;4986998;28;20531;-70
2021/07/30 00:58:09;;;;;;;8.25;3.30;;;;;;;16.43;65.25;100864.47;4992546;28;20042;-70
2021/07/30 01:00:34;;;;;;;8.75;3.25;;;;;;;16.41;65.24;100863.06;4988996;28;20037;-70
2021/07/30 01:03:00;;;;;;;10.32;3.10;;;;;;;16.40;65.23;100861.41;4991849;28;20408;-71
2021/07/30 01:05:31;;;;;;;12.20;4.45;;;;;;;16.39;65.58;100860.63;4994314;28;20508;-70
2021/07/30 01:08:00;;;;;;;6.38;3.28;;;;;;;16.35;65.87;100864.63;4986752;28;20030;-70
2021/07/30 01:10:26;;;;;;;7.13;2.95;;;;;;;16.35;66.00;100860.19;4989060;28;20042;-70
2021/07/30 01:12:52;;;;;;;8.55;3.40;;;;;;;16.35;66.16;100849.72;4991472;28;20034;-71
2021/07/30 01:15:18;;;;;;;4.30;3.08;;;;;;;16.33;66.21;100853.50;4996601;28;20026;-70
2021/07/30 01:17:43;;;;;;;5.55;3.15;;;;;;;16.31;66.08;100855.53;4968776;28;20490;-70
2021/07/30 01:20:13;;;;;;;11.00;4.03;;;;;;;16.33;65.86;100851.72;4968643;28;20427;-70
2021/07/30 01:22:58;;;;;;;9.23;3.05;;;;;;;16.34;65.84;100847.31;4989552;28;20034;-70
2021/07/30 01:25:26;;;;;;;8.73;2.80;;;;;;;16.34;65.68;100853.34;4995267;28;20389;-71
2021/07/30 01:27:52;;;;;;;4.30;2.70;;;;;;;16.35;65.86;100849.72;4990616;28;20073;-70
2021/07/30 01:30:20;;;;;;;7.88;3.60;;;;;;;16.35;65.90;100843.69;4985364;28;20081;-70
2021/07/30 01:32:46;;;;;;;7.30;3.17;;;;;;;16.33;66.09;100851.72;4985531;28;20133;-70
2021/07/30 01:35:11;;;;;;;6.30;3.33;;;;;;;16.29;66.51;100850.50;4985297;28;20125;-70
2021/07/30 01:37:37;;;;;;;5.68;2.95;;;;;;;16.27;66.93;100849.06;4987074;28;20027;-70
2021/07/30 01:40:04;;;;;;;7.88;2.95;;;;;;;16.26;67.23;100843.03;4985874;28;20042;-70
2021/07/30 01:42:30;;;;;;;9.38;3.50;;;;;;;16.24;67.38;100850.25;4985450;28;20030;-71
2021/07/30 01:44:56;;;;;;;6.50;3.40;;;;;;;16.23;67.62;100847.84;4985837;28;20104;-70
2021/07/30 01:47:21;;;;;;;4.07;2.63;;;;;;;16.20;67.99;100849.03;4987694;28;20025;-69
2021/07/30 01:49:48;;;;;;;7.32;3.40;;;;;;;16.18;68.05;100839.75;4987135;28;20084;-70
2021/07/30 01:52:14;;;;;;;5.63;3.30;;;;;;;16.14;68.36;100841.94;4987506;28;20030;-70
2021/07/30 01:54:39;;;;;;;7.18;3.33;;;;;;;16.10;68.36;100841.50;4990349;28;20030;-70
2021/07/30 01:57:06;;;;;;;6.93;3.15;;;;;;;16.05;68.81;100841.28;4995171;28;20310;-70
2021/07/30 01:59:31;;;;;;;9.25;3.60;;;;;;;16.02;68.96;100846.91;4989985;28;20042;-69
2021/07/30 02:01:57;;;;;;;7.45;3.55;;;;;;;15.97;69.01;100838.81;4987278;28;20042;-70
2021/07/30 02:04:23;;;;;;;4.70;3.17;;;;;;;15.94;69.04;100828.75;4985320;28;20226;-71
2021/07/30 02:06:48;;;;;;;7.63;3.22;;;;;;;15.88;69.47;100829.47;4983925;28;20033;-70
2021/07/30 02:09:14;;;;;;;6.35;3.22;;;;;;;15.82;69.40;100827.63;4978854;28;20306;-70
2021/07/30 02:11:41;;;;;;;5.57;3.20;;;;;;;15.77;69.71;100818.56;4985130;28;20104;-69
2021/07/30 02:14:15;;;;;;;6.45;3.22;;;;;;;15.76;69.79;100829.19;4985708;28;20058;-72
2021/07/30 02:16:49;;;;;;;7.20;3.42;;;;;;;15.71;69.80;100821.91;4986918;28;20070;-70
2021/07/30 02:19:19;;;;;;;10.75;3.30;;;;;;;15.67;69.88;100827.69;4971665;28;20030;-70
2021/07/30 02:21:46;;;;;;;7.57;3.53;;;;;;;15.62;70.27;100823.03;4992384;28;20026;-70
2021/07/30 02:24:12;;;;;;;7.85;2.83;;;;;;;15.58;70.25;100816.56;4985270;28;20492;-69
2021/07/30 02:26:38;;;;;;;9.05;3.55;;;;;;;15.55;70.11;100822.16;4985294;28;20034;-70
2021/07/30 02:29:04;;;;;;;7.05;3.65;;;;;;;15.54;70.15;100816.13;4984426;28;20038;-70
2021/07/30 02:31:30;;;;;;;7.03;4.32;;;;;;;15.53;69.93;100816.31;4966719;28;20037;-70
2021/07/30 02:33:56;;;;;;;8.48;3.65;;;;;;;15.48;69.96;100809.06;4984085;28;20038;-70
2021/07/30 02:36:21;;;;;;;6.25;3.25;;;;;;;15.47;70.01;100811.84;4987083;28;20080;-70
2021/07/30 02:38:47;;;;;;;6.28;3.72;;;;;;;15.42;70.37;100817.63;4986674;28;20027;-70
2021/07/30 02:41:13;;;;;;;8.10;3.40;;;;;;;15.37;70.56;100810.38;4983490;28;20038;-70
2021/07/30 02:43:39;;;;;;;9.75;4.22;;;;;;;15.32;70.83;100819.75;4988712;28;20041;-70
2021/07/30 02:46:05;;;;;;;6.95;4.18;;;;;;;15.29;70.95;100807.84;5001505;28;20073;-70
2021/07/30 02:48:31;;;;;;;6.50;3.22;;;;;;;15.27;71.08;100809.84;4988821;28;20472;-70
2021/07/30 02:50:56;;;;;;;6.68;3.58;;;;;;;15.27;71.41;100819.50;4988616;28;20489;-70
2021/07/30 02:53:22;;;;;;;7.50;3.92;;;;;;;15.26;71.19;100815.28;4990521;28;20026;-70
2021/07/30 02:55:47;;;;;;;6.47;3.75;;;;;;;15.23;71.47;100813.03;4987423;28;20400;-71
2021/07/30 02:58:13;;;;;;;7.38;3.70;;;;;;;15.21;71.43;100815.03;4990635;28;20050;-70
2021/07/30 03:00:39;;;;;;;11.43;3.88;;;;;;;15.18;71.57;100810.97;4989717;28;20432;-70
2021/07/30 03:03:05;;;;;;;8.60;3.90;;;;;;;15.14;71.87;100809.72;4991289;28;20549;-70
2021/07/30 03:05:30;;;;;;;7.78;3.78;;;;;;;15.11;71.90;100810.13;4988287;28;20026;-70
2021/07/30 03:07:56;;;;;;;6.70;3.63;;;;;;;15.09;72.19;100805.06;4985894;28;20045;-69
2021/07/30 03:10:21;;;;;;;7.95;3.88;;;;;;;15.07;72.43;100801.00;4989668;28;20084;-70
2021/07/30 03:12:47;;;;;;;7.40;3.15;;;;;;;15.05;72.40;100796.00;4997633;28;20041;-70
2021/07/30 03:15:13;;;;;;;8.30;3.40;;;;;;;15.02;72.30;100793.75;4987461;28;20038;-70
2021/07/30 03:17:38;;;;;;;11.70;3.83;;;;;;;14.99;72.44;100797.53;4989216;28;20038;-70
2021/07/30 03:20:07;;;;;;;5.60;3.47;;;;;;;14.97;72.50;100786.47;4984014;28;20041;-71
2021/07/30 03:22:33;;;;;;;8.38;4.32;;;;;;;14.98;72.52;100792.50;4989848;28;20034;-70
2021/07/30 03:24:59;;;;;;;7.15;3.20;;;;;;;14.97;72.77;100785.66;4989348;28;20038;-70
2021/07/30 03:27:25;;;;;;;9.30;4.30;;;;;;;14.96;72.51;100789.25;4988869;28;20029;-69
2021/07/30 03:29:50;;;;;;;11.30;3.70;;;;;;;14.91;72.83;100794.22;4982963;28;20045;-70
2021/07/30 03:32:16;;;;;;;8.75;3.50;;;;;;;14.88;72.95;100790.19;4995826;28;20105;-71
2021/07/30 03:34:42;;;;;;;11.30;4.07;;;;;;;14.84;72.91;100791.53;4994817;28;20036;-70
2021/07/30 03:37:08;;;;;;;7.50;3.40;;;;;;;14.82;72.77;100787.50;4990107;28;20081;-69
2021/07/30 03:39:33;;;;;;;7.50;3.58;;;;;;;14.77;73.23;100786.25;4992720;28;20028;-70
2021/07/30 03:41:59;;;;;;;7.50;3.60;;;;;;;14.72;73.60;100782.56;4993526;28;20038;-70
2021/07/30 03:44:25;;;;;;;7.22;3.30;;;;;;;14.67;73.66;100785.72;4990756;28;20033;-71
2021/07/30 03:46:51;;;;;;;8.02;3.50;;;;;;;14.62;73.83;100769.81;4990606;28;20030;-70
2021/07/30 03:49:17;;;;;;;8.10;3.88;;;;;;;14.57;74.08;100780.00;4989052;28;20096;-70
2021/07/30 03:51:43;;;;;;;6.82;3.72;;;;;;;14.56;74.06;100778.31;4988530;28;20477;-71
2021/07/30 03:54:09;;;;;;;6.53;3.60;;;;;;;14.55;74.33;100779.34;4987282;28;20034;-70
2021/07/30 03:56:42;;;;;;;11.55;3.72;;;;;;;14.56;74.05;100780.94;4987856;28;20045;-70
2021/07/30 03:59:09;;;;;;;9.57;4.15;;;;;;;14.55;74.05;100782.75;5003197;28;20057;-70
2021/07/30 04:01:35;;;;;;;12.52;3.70;;;;;;;14.55;74.17;100774.91;4989006;28;20030;-70
2021/07/30 04:04:00;;;;;;;8.40;3.38;;;;;;;14.57;74.13;100774.78;4991428;28;20025;-70
2021/07/30 04:06:26;;;;;;;8.68;4.05;;;;;;;14.52;74.30;100774.47;4990336;28;20042;-71
2021/07/30 04:08:52;;;;;;;11.15;4.13;;;;;;;14.48;74.71;100773.22;4990748;28;20033;-70
2021/07/30 04:11:17;;;;;;;7.60;3.53;;;;;;;14.46;74.69;100783.84;4993450;28;20038;-70
2021/07/30 04:13:45;;;;;;;8.48;3.30;;;;;;;14.48;74.79;100779.25;4994290;28;20018;-71
2021/07/30 04:16:11;;;;;;;9.23;3.70;;;;;;;14.49;74.94;100782.69;4992899;28;20026;-70
2021/07/30 04:18:37;;;;;;;10.15;3.55;;;;;;;14.46;75.08;100777.81;4990211;28;20374;-70
2021/07/30 04:21:07;;;;;;;7.95;4.03;;;;;;;14.40;75.29;100772.31;4972051;28;20685;-70
2021/07/30 04:23:34;;;;;;;14.02;4.32;;;;;;;14.37;75.43;100777.94;4986574;28;20030;-70
2021/07/30 04:26:01;;;;;;;5.95;3.40;;;;;;;14.36;75.54;100778.91;4988340;28;20041;-70
2021/07/30 04:28:26;;;;;;;12.57;3.30;;;;;;;14.37;75.34;100775.31;4987118;28;20026;-70
2021/07/30 04:30:52;;;;;;;10.80;3.35;;;;;;;14.38;75.53;100773.50;4986809;28;20030;-70
2021/07/30 04:33:17;;;;;;;14.57;5.30;;;;;;;14.37;75.32;100788.34;4987981;28;20303;-70
2021/07/30 04:35:43;;;;;;;7.47;2.97;;;;;;;14.40;75.26;100787.97;4987056;28;20420;-71
2021/07/30 04:38:08;;;;;;;7.75;3.38;;;;;;;14.44;74.89;100777.19;4984023;28;20030;-70
2021/07/30 04:40:36;;;;;;;12.70;3.40;;;;;;;14.42;75.11;100774.75;4988967;28;20604;-69
2021/07/30 04:43:02;;;;;;;18.95;3.45;;;;;;;14.43;75.37;100780.78;4989807;28;20030;-70
2021/07/30 04:45:27;;;;;;;8.40;3.38;;;;;;;14.44;75.44;100783.22;4995657;28;20396;-71
2021/07/30 04:47:53;;;;;;;7.55;3.83;;;;;;;14.46;75.11;100786.44;4991973;28;20388;-70
2021/07/30 04:50:18;;;;;;;12.27;3.78;;;;;;;14.47;74.77;100784.66;4987530;28;20057;-70
2021/07/30 04:52:44;;;;;;;11.82;3.88;;;;;;;14.46;75.04;100786.44;4989164;28;20416;-71
2021/07/30 04:55:10;;;;;;;8.50;3.30;;;;;;;14.47;75.26;100777.63;4988690;28;20038;-70
2021/07/30 04:57:35;;;;;;;9.82;3.28;;;;;;;14.48;75.37;100774.03;4990695;28;20034;-70
2021/07/30 05:00:01;;;;;;;14.57;4.10;;;;;;;14.51;75.25;100776.28;4983875;28;20022;-70
2021/07/30 05:02:27;;;;;;;9.77;3.60;;;;;;;14.52;75.04;100780.53;4987472;28;20113;-69
2021/07/30 05:04:56;;;;;;;10.68;3.22;;;;;;;14.58;74.78;100776.41;4969640;28;20061;-71
2021/07/30 05:07:22;;;;;;;9.50;3.55;;;;;;;14.62;74.65;100775.03;4986175;28;20121;-70
2021/07/30 05:09:48;;;;;;;9.52;3.33;;;;;;;14.68;74.45;100765.66;4986221;28;20561;-71
2021/07/30 05:12:13;;;;;;;10.88;3.00;;;;;;;14.71;74.63;100779.16;4992391;28;20041;-70
2021/07/30 05:14:39;;;;;;;10.13;3.47;;;;;;;14.74;74.58;100770.94;4987825;28;20491;-70
2021/07/30 05:17:04;;;;;;;11.20;3.53;;;;;;;14.79;74.49;100767.81;4988461;28;20540;-70
2021/07/30 05:19:30;;;;;;;13.63;3.60;;;;;;;14.82;74.37;100766.63;4970122;28;20026;-70
2021/07/30 05:21:55;;;;;;;16.60;4.60;;;;;;;14.85;74.17;100761.03;4985038;28;20234;-70
2021/07/30 05:24:21;;;;;;;13.63;3.08;;;;;;;14.88;73.72;100752.81;4967129;28;20066;-70
2021/07/30 05:26:46;;;;;;;12.85;3.25;;;;;;;14.91;73.35;100748.03;4974673;28;20393;-70
2021/07/30 05:29:12;;;;;;;14.88;4.30;;;;;;;15.04;72.90;100757.00;4986972;28;20033;-70
2021/07/30 05:31:37;;;;;;;10.32;3.28;;;;;;;15.05;72.49;100756.81;4986214;28;20034;-70
2021/07/30 05:34:03;;;;;;;12.48;4.15;;;;;;;15.05;72.52;100750.78;4988425;28;20049;-70
2021/07/30 05:36:28;;;;;;;10.20;3.08;;;;;;;15.14;72.24;100747.88;4986114;28;20089;-70
2021/07/30 05:38:54;;;;;;;13.95;3.83;;;;;;;15.19;72.34;100742.06;4985390;28;20038;-70
2021/07/30 05:41:19;;;;;;;11.50;3.47;;;;;;;15.24;72.45;100738.88;4985730;28;20038;-70
2021/07/30 05:43:46;;;;;;;7.03;3.15;;;;;;;15.37;72.31;100744.25;4988537;28;20315;-71
2021/07/30 05:46:18;;;;;;;11.45;2.95;;;;;;;15.50;72.28;100741.75;4987470;28;20035;-70
2021/07/30 05:48:45;;;;;;;12.93;2.90;;;;;;;15.59;72.00;100739.78;4985574;28;20041;-70
2021/07/30 05:51:11;;;;;;;11.73;3.60;;;;;;;15.73;71.64;100731.06;4963214;28;20027;-70
2021/07/30 05:53:37;;;;;;;14.68;3.58;;;;;;;15.83;70.48;100737.75;4991132;28;20045;-71
2021/07/30 05:56:03;;;;;;;12.35;3.30;;;;;;;16.07;69.96;100733.88;4987247;28;20416;-70
2021/07/30 05:58:28;;;;;;;9.90;3.30;;;;;;;16.43;69.47;100728.38;4978456;28;20043;-70
2021/07/30 06:00:54;;;;;;;12.10;3.42;;;;;;;16.84;67.62;100724.91;4985536;28;20026;-70
2021/07/30 06:03:19;;;;;;;8.77;3.67;;;;;;;17.17;66.31;100723.31;4986327;28;20041;-70
2021/07/30 06:05:45;;;;;;;11.68;3.47;;;;;;;17.37;64.92;100716.25;4987011;28;20038;-70
2021/07/30 06:08:10;;;;;;;12.57;3.65;;;;;;;17.56;64.09;100729.56;4985503;28;20034;-70
2021/07/30 06:10:37;;;;;;;11.48;2.83;;;;;;;17.93;62.60;100720.22;4986157;28;20085;-70
2021/07/30 06:13:03;;;;;;;14.48;3.47;;;;;;;18.14;62.40;100716.53;4988257;28;20124;-71
2021/07/30 06:15:29;;;;;;;15.52;2.95;;;;;;;18.44;60.97;100716.81;4991070;28;20037;-70
2021/07/30 06:17:54;;;;;;;9.88;2.92;;;;;;;18.52;60.87;100722.81;4987849;28;20030;-70
2021/07/30 06:20:20;;;;;;;19.02;3.72;;;;;;;18.27;60.49;100713.84;4981377;28;20346;-70
2021/07/30 06:22:46;;;;;;;7.25;3.10;;;;;;;18.05;61.25;100715.94;4975719;28;20416;-70
2021/07/30 06:25:12;;;;;;;9.27;2.75;;;;;;;18.12;61.57;100723.81;4977959;28;20030;-70
2021/07/30 06:27:37;;;;;;;8.05;2.67;;;;;;;18.17;61.28;100723.16;4991328;28;20508;-71
2021/07/30 06:30:06;;;;;;;13.57;3.28;;;;;;;18.42;60.96;100718.84;4989592;28;20034;-70
2021/07/30 06:32:31;;;;;;;7.72;2.40;;;;;;;18.54;59.73;100718.16;4990277;28;20105;-70
2021/07/30 06:34:57;;;;;;;12.27;4.05;;;;;;;18.64;58.85;100713.25;4982992;28;20034;-70
2021/07/30 06:37:22;;;;;;;9.18;3.78;;;;;;;18.89;59.67;100702.81;4970856;28;20454;-70
2021/07/30 06:39:48;;;;;;;8.73;2.83;;;;;;;19.37;58.70;100714.56;4992202;28;20038;-70
2021/07/30 06:42:14;;;;;;;15.80;3.47;;;;;;;19.70;56.85;100708.16;4967719;28;20069;-70
2021/07/30 06:44:39;;;;;;;11.20;2.65;;;;;;;19.99;56.70;100709.31;4993620;28;20567;-70
2021/07/30 06:47:05;;;;;;;12.00;2.20;;;;;;;19.69;58.44;100696.06;4990743;28;20089;-70
2021/07/30 06:49:34;;;;;;;8.05;3.53;;;;;;;19.35;57.92;100708.72;4993510;28;20488;-70
2021/07/30 06:52:00;;;;;;;8.60;2.10;;;;;;;19.40;57.40;100707.06;4992073;28;20035;-70
2021/07/30 06:54:27;;;;;;;13.32;4.47;;;;;;;19.79;56.95;100701.63;4985429;28;20393;-72
2021/07/30 06:56:52;;;;;;;17.63;3.35;;;;;;;20.05;55.48;100700.53;4992989;28;20505;-71
2021/07/30 06:59:18;;;;;;;6.30;2.38;;;;;;;20.28;54.86;100707.72;4988117;28;20119;-70
2021/07/30 07:01:43;;;;;;;10.05;2.50;;;;;;;20.53;54.00;100704.97;4995831;28;20030;-70
2021/07/30 07:04:09;;;;;;;11.52;3.38;;;;;;;20.38;53.49;100707.19;4992930;28;20298;-70
2021/07/30 07:06:34;;;;;;;12.80;2.40;;;;;;;20.78;53.96;100704.03;4990458;28;20026;-70
2021/07/30 07:09:00;;;;;;;15.07;2.88;;;;;;;21.04;54.00;100705.47;4992324;28;20444;-70
2021/07/30 07:11:25;;;;;;;7.22;2.22;;;;;;;20.68;53.12;100704.59;4996254;28;20026;-71
2021/07/30 07:13:51;;;;;;;9.40;2.53;;;;;;;20.61;53.72;100694.13;4987914;28;20477;-71
2021/07/30 07:16:20;;;;;;;8.60;2.38;;;;;;;20.86;53.95;100701.06;4987790;28;20077;-70
2021/07/30 07:18:46;;;;;;;12.52;2.33;;;;;;;21.38;52.96;100693.31;4993102;28;20428;-70
2021/07/30 07:21:13;;;;;;;10.30;1.85;;;;;;;21.33;51.71;100690.56;4974454;28;20034;-71
2021/07/30 07:23:42;;;;;;;7.00;2.35;;;;;;;21.54;52.05;100685.75;4987236;28;20065;-71
2021/07/30 07:26:07;;;;;;;5.90;2.10;;;;;;;22.04;48.52;100677.28;4991250;28;20089;-71
2021/07/30 07:28:32;;;;;;;5.32;1.90;;;;;;;22.38;47.41;100687.13;4989561;28;20034;-71
2021/07/30 07:30:58;;;;;;;9.48;1.90;;;;;;;22.66;46.54;100687.13;4994135;28;20037;-71
2021/07/30 07:33:23;;;;;;;5.45;1.42;;;;;;;22.62;47.94;100675.44;4986591;28;20038;-71
2021/07/30 07:35:49;;;;;;;5.55;1.67;;;;;;;22.70;47.42;100677.66;4984997;28;20492;-71
2021/07/30 07:38:15;;;;;;;6.93;2.10;;;;;;;22.47;45.32;100668.03;4997064;28;20038;-70
2021/07/30 07:40:43;;;;;;;7.63;1.90;;;;;;;22.68;46.62;100671.81;4993771;28;20087;-70
2021/07/30 07:43:09;;;;;;;4.30;1.52;;;;;;;22.69;45.77;100664.69;4963506;28;20069;-71
2021/07/30 07:45:34;;;;;;;3.90;1.67;;;;;;;22.65;47.02;100667.00;4994444;28;20034;-71
2021/07/30 07:48:00;;;;;;;8.95;1.83;;;;;;;22.89;46.57;100656.28;4994111;28;20331;-71
2021/07/30 07:50:25;;;;;;;8.27;2.50;;;;;;;23.55;46.64;100656.44;4999015;28;20078;-70
2021/07/30 07:52:51;;;;;;;6.35;2.15;;;;;;;24.07;44.37;100650.69;4995864;28;20045;-71
2021/07/30 07:55:16;;;;;;;7.25;1.95;;;;;;;24.74;43.42;100647.84;4994586;28;20022;-71
2021/07/30 07:57:43;;;;;;;3.47;1.60;;;;;;;25.00;40.57;100652.28;4995609;28;20554;-71
2021/07/30 08:00:10;;;;;;;4.25;1.50;;;;;;;25.18;41.73;100648.38;4974910;28;20293;-70
2021/07/30 08:02:39;;;;;;;5.57;1.35;;;;;;;25.11;40.14;100644.38;4990912;28;20059;-71
2021/07/30 08:05:05;;;;;;;3.25;1.33;;;;;;;25.57;40.58;100647.28;4993205;28;20117;-71
2021/07/30 08:07:31;;;;;;;3.78;1.52;;;;;;;25.88;39.97;100650.03;4995764;28;20034;-71
2021/07/30 08:09:56;;;;;;;7.88;1.70;;;;;;;26.08;39.96;100647.44;4997878;28;20049;-71
2021/07/30 08:12:22;;;;;;;4.20;1.50;;;;;;;26.08;40.13;100642.13;4991446;28;20034;-71
2021/07/30 08:14:47;;;;;;;7.32;2.15;;;;;;;25.95;39.26;100640.00;4998243;28;20045;-71
2021/07/30 08:17:14;;;;;;;8.95;1.55;;;;;;;26.01;41.27;100639.75;4989632;28;20101;-71
2021/07/30 08:19:41;;;;;;;6.07;1.45;;;;;;;26.05;38.72;100636.53;4990708;28;20034;-71
2021/07/30 08:22:07;;;;;;;7.63;1.63;;;;;;;26.20;39.13;100633.91;4991991;28;20105;-72
2021/07/30 08:24:32;;;;;;;4.78;1.80;;;;;;;26.29;38.96;100616.38;4987162;28;20034;-71
2021/07/30 08:26:58;;;;;;;5.63;1.52;;;;;;;26.80;38.43;100615.56;4988910;28;20088;-72
2021/07/30 08:29:23;;;;;;;5.50;2.00;;;;;;;26.49;38.75;100612.94;4987015;28;20361;-71
2021/07/30 08:31:49;;;;;;;3.38;1.73;;;;;;;26.67;39.09;100608.16;4992562;28;20053;-73
2021/07/30 08:34:15;;;;;;;6.38;1.65;;;;;;;26.45;37.30;100611.88;4988858;28;20073;-70
2021/07/30 08:36:41;;;;;;;4.53;1.25;;;;;;;26.54;39.58;100607.63;4990046;28;20133;-71
2021/07/30 08:39:07;;;;;;;7.82;2.03;;;;;;;26.80;38.01;100612.91;4984931;28;20396;-73
2021/07/30 08:41:34;;;;;;;5.80;1.85;;;;;;;26.52;39.80;100607.09;4984306;28;20022;-71
2021/07/30 08:43:59;;;;;;;6.70;2.03;;;;;;;26.51;40.22;100613.47;4989976;28;20038;-71
2021/07/30 08:46:26;;;;;;;5.15;1.42;;;;;;;26.59;39.13;100602.31;4991265;28;20085;-71
2021/07/30 08:48:52;;;;;;;3.47;1.67;;;;;;;26.90;37.79;100604.94;4989184;28;20035;-71
2021/07/30 08:51:19;;;;;;;4.45;1.90;;;;;;;26.94;37.68;100603.31;4986350;28;20034;-71
2021/07/30 08:53:46;;;;;;;3.95;1.50;;;;;;;27.22;37.66;100597.63;4988553;28;20064;-71
2021/07/30 08:56:13;;;;;;;4.10;1.77;;;;;;;27.29;39.03;100592.84;4987921;28;20088;-73
2021/07/30 08:58:38;;;;;;;8.35;1.52;;;;;;;26.69;38.79;100606.00;4986990;28;20058;-71
2021/07/30 09:01:04;;;;;;;3.97;1.52;;;;;;;26.79;38.76;100600.69;4985602;28;20073;-72
2021/07/30 09:03:40;;;;;;;4.15;1.50;;;;;;;27.00;39.36;100591.59;4987419;28;20242;-71
2021/07/30 09:06:10;;;;;;;2.00;1.33;;;;;;;27.41;36.21;100587.19;4990361;28;20026;-73
2021/07/30 09:08:36;;;;;;;2.85;1.70;;;;;;;27.71;37.69;100595.03;4992542;28;20022;-72
2021/07/30 09:11:01;;;;;;;8.23;2.03;;;;;;;27.81;37.42;100586.19;4986192;28;20193;-70
2021/07/30 09:13:28;;;;;;;3.67;1.70;;;;;;;27.77;37.95;100585.16;4986083;28;20409;-71
2021/07/30 09:16:06;;;;;;;4.63;1.77;;;;;;;27.64;36.43;100585.75;4991756;28;20033;-70
2021/07/30 09:18:42;;;;;;;4.05;1.70;;;;;;;26.71;37.99;100588.75;4986760;28;20247;-72
2021/07/30 09:21:28;;;;;;;6.88;1.88;;;;;;;26.27;38.76;100585.84;4982656;28;20026;-71
2021/07/30 09:24:02;;;;;;;6.53;2.05;;;;;;;26.33;39.40;100584.75;4990268;28;20117;-70
2021/07/30 09:26:38;;;;;;;5.97;2.08;;;;;;;26.62;38.93;100587.69;4979422;28;20030;-71
2021/07/30 09:29:06;;;;;;;5.32;1.38;;;;;;;27.00;38.75;100574.84;4989870;28;20149;-71
2021/07/30 09:31:55;;;;;;;6.10;2.67;;;;;;;27.27;37.62;100579.81;4988123;28;20089;-71
2021/07/30 09:34:24;;;;;;;5.05;2.30;;;;;;;27.35;39.30;100571.28;4988394;28;20037;-72
2021/07/30 09:37:06;;;;;;;4.88;1.67;;;;;;;26.98;38.97;100569.00;4985601;28;20084;-71
2021/07/30 09:39:36;;;;;;;3.47;1.95;;;;;;;26.93;38.82;100569.78;4987344;28;20113;-71
2021/07/30 09:42:09;;;;;;;3.58;1.75;;;;;;;26.52;39.45;100564.56;4982556;28;20034;-71
2021/07/30 09:44:36;;;;;;;;;;;;;;;26.84;38.89;100562.66;4989586;28;20077;-71
2021/07/30 09:47:09;;;;;;;4.93;1.60;;;;;;;26.63;39.84;100559.25;4993709;28;19960;-71
2021/07/30 09:49:46;;;;;;;7.93;2.17;;;;;;;26.74;39.63;100558.94;4988806;28;20033;-70
2021/07/30 09:52:25;;;;;;;6.20;1.90;;;;;;;26.51;39.60;100556.84;4986071;28;20030;-71
2021/07/30 09:54:59;;;;;;;6.28;1.73;;;;;;;26.13;40.54;100565.09;4994472;28;20064;-71
2021/07/30 09:57:29;;;;;;;3.08;1.90;;;;;;;26.09;40.49;100549.94;4989392;28;20275;-70
2021/07/30 10:00:04;;;;;;;4.60;1.73;;;;;;;25.82;40.57;100551.78;4991881;28;20042;-72
2021/07/30 10:02:31;;;;;;;4.32;2.10;;;;;;;25.93;40.42;100541.97;4988279;28;20030;-72
2021/07/30 10:04:57;;;;;;;4.90;1.60;;;;;;;26.17;39.07;100536.16;4992492;28;20412;-71
2021/07/30 10:07:25;;;;;;;3.40;2.17;;;;;;;25.94;39.20;100532.19;4993043;28;20024;-71
2021/07/30 10:10:07;;;;;;;4.00;2.20;;;;;;;25.63;41.67;100540.84;4991840;28;20038;-71
2021/07/30 10:12:58;;;;;;;6.80;2.22;;;;;;;25.97;40.10;100540.38;4989394;28;20443;-72
2021/07/30 10:15:24;;;;;;;4.35;1.90;;;;;;;26.18;39.41;100527.91;4993474;28;20126;-71
2021/07/30 10:17:58;;;;;;;4.05;2.10;;;;;;;26.27;40.10;100520.19;4994487;28;20486;-71
2021/07/30 10:20:25;;;;;;;10.48;2.20;;;;;;;26.49;38.93;100521.78;4988949;28;20100;-71
2021/07/30 10:22:55;;;;;;;3.78;1.90;;;;;;;26.50;38.23;100505.53;4988765;28;20501;-70
2021/07/30 10:25:23;;;;;;;7.03;2.00;;;;;;;26.40;40.63;100510.88;4992049;28;20037;-71
2021/07/30 10:27:52;;;;;;;6.65;1.88;;;;;;;26.77;39.13;100505.22;4986373;28;20066;-71
2021/07/30 10:30:18;;;;;;;4.38;1.90;;;;;;;27.24;41.91;100497.03;4989271;28;20037;-72
2021/07/30 10:33:02;;;;;;;4.78;2.30;;;;;;;27.54;39.19;100494.22;4987869;28;20038;-71
2021/07/30 10:35:27;;;;;;;6.22;2.63;;;;;;;27.37;37.65;100497.25;4986997;28;20057;-71
2021/07/30 10:38:16;;;;;;;5.68;2.97;;;;;;;27.02;38.85;100490.22;4964057;28;20246;-71
2021/07/30 10:41:05;;;;;;;5.78;2.17;;;;;;;27.08;39.16;100489.13;4989142;28;20018;-71
2021/07/30 10:43:33;;;;;;;3.67;1.85;;;;;;;27.46;39.38;100478.81;4988000;28;20045;-73
2021/07/30 10:46:05;;;;;;;2.95;1.70;;;;;;;27.32;40.22;100488.53;4984913;28;20069;-71
2021/07/30 10:48:36;;;;;;;4.97;2.90;;;;;;;26.83;40.08;100489.25;4987735;28;20125;-71
2021/07/30 10:51:21;;;;;;;3.92;2.10;;;;;;;26.72;38.87;100476.00;4978922;28;20406;-72
2021/07/30 10:53:59;;;;;;;3.95;2.40;;;;;;;26.83;38.92;100481.28;4977615;28;20042;-71
2021/07/30 10:56:28;;;;;;;4.25;2.10;;;;;;;26.90;39.99;100476.44;4986887;28;20068;-71
2021/07/30 10:58:54;;;;;;;3.63;2.10;;;;;;;26.85;38.48;100479.94;4988237;28;20030;-71
2021/07/30 11:01:21;;;;;;;2.60;2.03;;;;;;;26.47;38.41;100473.41;4983253;28;20110;-71
2021/07/30 11:03:52;;;;;;;6.05;2.05;;;;;;;26.93;39.23;100486.56;4991967;28;20058;-72
2021/07/30 11:06:21;;;;;;;5.78;2.20;;;;;;;27.02;37.09;100466.28;4991051;28;20026;-71
2021/07/30 11:08:58;;;;;;;5.63;2.13;;;;;;;27.40;39.45;100468.50;4990187;28;20378;-71
2021/07/30 11:11:41;;;;;;;3.85;2.20;;;;;;;27.52;37.55;100468.94;4992363;28;20125;-71
2021/07/30 11:14:12;;;;;;;4.88;2.15;;;;;;;27.49;37.97;100456.19;4990396;28;20046;-70
2021/07/30 11:16:42;;;;;;;4.90;2.25;;;;;;;27.44;39.08;100462.34;4989222;28;20128;-71
2021/07/30 11:19:10;;;;;;;7.35;2.55;;;;;;;27.60;37.49;100464.91;4994199;28;20026;-71
2021/07/30 11:21:35;;;;;;;3.63;2.03;;;;;;;27.29;38.10;100460.56;4991723;28;20287;-71
2021/07/30 11:24:02;;;;;;;4.78;2.80;;;;;;;26.86;38.96;100467.44;4999509;28;20025;-71
2021/07/30 11:26:29;;;;;;;5.32;2.30;;;;;;;26.73;39.15;100463.47;4990002;28;20500;-72